Time;durP1;ratioP1;P1;durP2;ratioP2;P2;SDS_P1;SDS_P2;PMS_P1;PMS_P2;Temp;Humidity;BMP_temperature;BMP_pressure;BME280_temperature;BME280_humidity;BME280_pressure;Samples;Min_cycle;Max_cycle;Signal;HPM_P1;HPM_P2
2021/06/19 00:01:05;;;;;;;9.78;3.40;;;;;;;17.33;96.94;101095.46;1749540;82;21569;-38
2021/06/19 00:03:32;;;;;;;7.28;3.70;;;;;;;17.32;97.07;101096.38;1749158;82;21004;-37
2021/06/19 00:05:59;;;;;;;3.60;3.02;;;;;;;17.32;97.40;101093.75;1749105;82;20979;-38
2021/06/19 00:08:26;;;;;;;8.85;3.17;;;;;;;17.32;97.62;101093.75;1749255;82;20940;-36
2021/06/19 00:10:53;;;;;;;7.78;3.50;;;;;;;17.29;97.66;101092.09;1749330;82;21179;-37
2021/06/19 00:13:19;;;;;;;6.55;3.47;;;;;;;17.29;97.75;101097.77;1749211;82;20955;-36
2021/06/19 00:15:46;;;;;;;5.80;3.30;;;;;;;17.28;97.93;101097.36;1721759;82;21458;-38
2021/06/19 00:18:13;;;;;;;5.67;3.00;;;;;;;17.25;97.92;101100.97;1749531;82;21474;-35
2021/06/19 00:20:39;;;;;;;7.00;2.85;;;;;;;17.20;97.86;101097.67;1749323;82;21019;-37
2021/06/19 00:23:06;;;;;;;8.53;3.55;;;;;;;17.15;97.84;101104.80;1749357;82;21187;-36
2021/06/19 00:25:32;;;;;;;9.90;3.17;;;;;;;17.12;97.96;101105.78;1749216;82;20976;-37
2021/06/19 00:27:59;;;;;;;7.05;3.10;;;;;;;17.13;98.24;101110.55;1749388;82;20995;-37
2021/06/19 00:30:25;;;;;;;7.67;3.50;;;;;;;17.14;98.51;101106.58;1749246;82;20948;-36
2021/06/19 00:32:52;;;;;;;4.05;3.40;;;;;;;17.19;98.83;101105.13;1749709;82;20975;-36
2021/06/19 00:35:20;;;;;;;3.70;3.40;;;;;;;17.23;98.98;101103.62;1749398;82;22847;-37
2021/06/19 00:37:49;;;;;;;6.12;3.83;;;;;;;17.28;98.97;101105.21;1749583;82;20924;-37
2021/06/19 00:40:18;;;;;;;5.22;3.25;;;;;;;17.28;98.93;101094.31;1749413;82;21541;-38
2021/06/19 00:42:58;;;;;;;4.40;3.15;;;;;;;17.30;98.92;101099.47;1749449;82;22178;-39
2021/06/19 00:45:25;;;;;;;3.70;3.37;;;;;;;17.33;98.99;101104.14;1749050;82;20956;-39
2021/06/19 00:47:52;;;;;;;6.97;3.30;;;;;;;17.35;99.00;101101.48;1749603;82;21098;-39
2021/06/19 00:50:20;;;;;;;5.22;3.60;;;;;;;17.36;99.01;101098.80;1749245;82;21455;-36
2021/06/19 00:52:46;;;;;;;7.95;3.00;;;;;;;17.39;98.95;101104.38;1749235;82;20987;-36
2021/06/19 00:55:13;;;;;;;5.37;3.15;;;;;;;17.40;98.86;101102.16;1749217;81;20912;-38
2021/06/19 00:57:39;;;;;;;4.45;3.15;;;;;;;17.39;98.72;101095.23;1749292;82;20979;-37
2021/06/19 01:00:08;;;;;;;6.10;3.08;;;;;;;17.38;98.64;101098.28;1749328;82;21190;-38
2021/06/19 01:02:36;;;;;;;9.35;2.98;;;;;;;17.37;98.53;101094.44;1749233;82;20932;-37
2021/06/19 01:05:05;;;;;;;5.70;3.17;;;;;;;17.33;98.37;101097.61;1749517;82;21019;-38
2021/06/19 01:07:32;;;;;;;7.78;3.05;;;;;;;17.31;98.30;101096.81;1749320;82;20901;-38
2021/06/19 01:09:59;;;;;;;8.03;3.30;;;;;;;17.26;98.24;101097.87;1749255;82;20904;-38
2021/06/19 01:12:26;;;;;;;8.45;3.62;;;;;;;17.22;98.19;101098.47;1749342;82;21096;-37
2021/06/19 01:14:54;;;;;;;7.92;3.33;;;;;;;17.19;98.15;101105.95;1749206;82;20979;-38
2021/06/19 01:17:21;;;;;;;6.97;3.45;;;;;;;17.16;98.14;101104.77;1749374;82;20976;-36
2021/06/19 01:20:07;;;;;;;7.65;3.08;;;;;;;17.09;98.15;101098.89;1749226;82;20944;-37
2021/06/19 01:22:33;;;;;;;15.68;3.77;;;;;;;17.06;98.14;101100.78;1748939;82;20952;-37
2021/06/19 01:25:01;;;;;;;10.08;3.20;;;;;;;17.01;98.09;101103.98;1749364;82;21732;-37
2021/06/19 01:27:29;;;;;;;8.58;2.83;;;;;;;16.97;98.05;101104.97;1749123;82;20936;-36
2021/06/19 01:29:57;;;;;;;7.58;3.30;;;;;;;16.90;97.99;101107.81;1749225;82;21497;-38
2021/06/19 01:32:28;;;;;;;5.30;3.02;;;;;;;16.84;98.00;101115.88;1749289;82;20975;-38
2021/06/19 01:34:55;;;;;;;15.28;3.72;;;;;;;16.79;98.02;101112.53;1749231;82;21497;-38
2021/06/19 01:37:22;;;;;;;7.20;3.02;;;;;;;16.74;98.17;101118.37;1749203;82;21129;-38
2021/06/19 01:39:48;;;;;;;7.67;3.10;;;;;;;16.73;98.30;101121.90;1749166;82;20928;-36
2021/06/19 01:42:15;;;;;;;9.23;3.00;;;;;;;16.71;98.37;101123.28;1749270;82;20936;-36
2021/06/19 01:44:41;;;;;;;13.93;3.20;;;;;;;16.67;98.33;101121.64;1749433;82;20976;-37
2021/06/19 01:47:08;;;;;;;6.08;2.70;;;;;;;16.63;98.33;101124.83;1749566;82;20988;-37
2021/06/19 01:49:36;;;;;;;8.45;3.72;;;;;;;16.59;98.31;101125.84;1749306;82;21118;-36
2021/06/19 01:52:04;;;;;;;7.05;3.30;;;;;;;16.58;98.41;101129.80;1749288;82;21743;-36
2021/06/19 01:54:49;;;;;;;9.45;3.02;;;;;;;16.55;98.50;101132.52;1749171;82;20932;-37
2021/06/19 01:57:03;;;;;;;10.98;3.98;;;;;;;16.52;98.63;101134.33;1741852;81;21008;-38
2021/06/19 01:59:29;;;;;;;5.55;3.33;;;;;;;16.54;99.00;101136.04;1749331;82;20991;-35
2021/06/19 02:01:58;;;;;;;14.47;3.05;;;;;;;16.56;99.16;101140.33;1749297;82;21193;-36
2021/06/19 02:04:25;;;;;;;7.70;2.80;;;;;;;16.57;99.41;101142.03;1749348;82;21592;-35
2021/06/19 02:06:53;;;;;;;6.62;3.10;;;;;;;16.58;99.52;101141.13;1749304;82;21019;-34
2021/06/19 02:09:19;;;;;;;5.95;3.10;;;;;;;16.59;99.51;101148.50;1749181;82;20971;-35
2021/06/19 02:11:46;;;;;;;4.83;3.20;;;;;;;16.60;99.51;101151.52;1749321;82;20967;-36
2021/06/19 02:14:16;;;;;;;4.05;2.98;;;;;;;16.59;99.44;101151.11;1749527;82;21557;-36
2021/06/19 02:16:43;;;;;;;7.00;2.72;;;;;;;16.57;99.44;101144.64;1749240;82;20972;-36
2021/06/19 02:19:10;;;;;;;5.20;2.85;;;;;;;16.58;99.48;101147.66;1749274;82;20960;-35
2021/06/19 02:21:37;;;;;;;6.30;2.70;;;;;;;16.60;99.61;101146.28;1749289;82;21505;-35
2021/06/19 02:24:05;;;;;;;6.15;2.70;;;;;;;16.62;99.81;101141.86;1749299;82;21043;-37
2021/06/19 02:26:31;;;;;;;6.25;2.55;;;;;;;16.64;99.98;101147.45;1749119;82;21195;-36
2021/06/19 02:28:58;;;;;;;7.97;2.80;;;;;;;16.70;100.00;101145.53;1749243;82;21023;-36
2021/06/19 02:31:24;;;;;;;6.42;2.83;;;;;;;16.74;100.00;101150.62;1749300;82;21003;-38
2021/06/19 02:33:50;;;;;;;5.85;3.12;;;;;;;16.79;100.00;101147.39;1749151;82;20904;-37
2021/06/19 02:36:17;;;;;;;11.90;2.30;;;;;;;16.86;100.00;101151.09;1749294;82;21523;-38
2021/06/19 02:38:43;;;;;;;7.85;2.70;;;;;;;16.93;100.00;101156.55;1749287;82;21983;-38
2021/06/19 02:41:10;;;;;;;10.82;2.70;;;;;;;16.99;100.00;101156.36;1749239;82;20893;-36
2021/06/19 02:43:37;;;;;;;4.05;2.40;;;;;;;17.06;100.00;101154.39;1749332;82;20971;-37
2021/06/19 02:46:03;;;;;;;14.68;2.52;;;;;;;17.14;100.00;101158.89;1749127;82;20932;-35
2021/06/19 02:48:31;;;;;;;7.53;2.90;;;;;;;17.21;100.00;101160.38;1749470;82;21532;-37
2021/06/19 02:50:57;;;;;;;11.63;2.85;;;;;;;17.27;100.00;101164.55;1749581;82;21825;-36
2021/06/19 02:53:25;;;;;;;10.95;2.50;;;;;;;17.33;100.00;101170.86;1749126;82;20976;-38
2021/06/19 02:55:55;;;;;;;8.13;3.65;;;;;;;17.41;100.00;101170.59;1749191;82;20940;-38
2021/06/19 02:58:20;;;;;;;7.78;2.72;;;;;;;17.48;100.00;101164.22;1749184;82;20967;-38
2021/06/19 03:00:47;;;;;;;12.98;3.30;;;;;;;17.56;99.90;101170.49;1749277;82;20948;-37
2021/06/19 03:03:13;;;;;;;10.05;2.90;;;;;;;17.65;99.81;101170.62;1749256;82;21957;-38
2021/06/19 03:05:40;;;;;;;9.48;3.55;;;;;;;17.73;99.57;101168.55;1749221;82;21609;-36
2021/06/19 03:08:08;;;;;;;5.00;2.72;;;;;;;17.81;99.27;101168.28;1749203;82;20975;-38
2021/06/19 03:10:37;;;;;;;13.48;3.40;;;;;;;17.90;98.91;101167.92;1749098;82;20975;-36
2021/06/19 03:13:04;;;;;;;7.80;2.87;;;;;;;17.97;98.48;101162.00;1749515;82;21505;-37
2021/06/19 03:15:30;;;;;;;10.68;3.30;;;;;;;18.07;98.21;101167.77;1749097;82;21501;-38
2021/06/19 03:17:57;;;;;;;3.80;2.90;;;;;;;18.17;97.89;101174.34;1749052;82;20944;-37
2021/06/19 03:20:23;;;;;;;10.55;3.47;;;;;;;18.27;97.63;101177.46;1749187;82;21494;-37
2021/06/19 03:22:56;;;;;;;5.67;2.77;;;;;;;18.37;97.28;101179.27;1749187;82;20904;-38
2021/06/19 03:25:30;;;;;;;4.15;2.50;;;;;;;18.49;96.95;101185.78;1749282;82;20997;-36
2021/06/19 03:27:57;;;;;;;11.45;3.02;;;;;;;18.61;96.54;101185.30;1749185;82;21148;-37
2021/06/19 03:30:27;;;;;;;5.83;2.80;;;;;;;18.74;96.19;101184.78;1749173;82;21514;-38
2021/06/19 03:32:53;;;;;;;7.70;2.62;;;;;;;18.84;95.59;101176.95;1749162;82;20991;-38
2021/06/19 03:35:20;;;;;;;4.17;2.40;;;;;;;18.96;95.14;101177.73;1749182;82;20987;-35
2021/06/19 03:37:47;;;;;;;8.98;2.50;;;;;;;19.12;94.49;101179.74;1749277;82;21015;-38
2021/06/19 03:40:16;;;;;;;3.55;2.12;;;;;;;19.30;93.69;101183.78;1749114;82;20968;-36
2021/06/19 03:42:43;;;;;;;7.83;2.35;;;;;;;19.52;93.09;101181.91;1749091;82;21011;-37
2021/06/19 03:45:11;;;;;;;9.98;2.30;;;;;;;19.84;92.39;101182.70;1749088;82;21569;-38
2021/06/19 03:47:41;;;;;;;5.58;2.33;;;;;;;20.16;91.43;101183.47;1749137;82;20971;-37
2021/06/19 03:50:10;;;;;;;5.97;2.25;;;;;;;20.44;89.43;101183.45;1749459;82;20952;-37
2021/06/19 03:52:36;;;;;;;11.95;3.08;;;;;;;20.73;88.05;101178.53;1749110;82;21187;-36
2021/06/19 03:55:07;;;;;;;10.25;2.92;;;;;;;20.96;86.05;101180.89;1749097;82;20948;-37
2021/06/19 03:57:36;;;;;;;5.85;2.52;;;;;;;21.17;84.28;101181.17;1749091;81;20952;-38
2021/06/19 04:00:11;;;;;;;10.55;2.05;;;;;;;21.37;82.96;101183.63;1749319;82;21447;-38
2021/06/19 04:02:43;;;;;;;5.45;2.00;;;;;;;21.53;81.95;101170.49;1749179;82;21594;-36
2021/06/19 04:05:10;;;;;;;4.80;2.10;;;;;;;21.63;79.90;101179.23;1749176;82;21892;-37
2021/06/19 04:07:38;;;;;;;7.90;2.60;;;;;;;21.57;78.97;101184.81;1749052;82;20972;-37
2021/06/19 04:12:37;;;;;;;5.17;2.42;;;;;;;21.56;78.78;101189.24;1797646;79;22553;-38
2021/06/19 04:15:07;;;;;;;8.15;2.65;;;;;;;21.54;78.48;101186.67;1757412;81;20913;-38
2021/06/19 04:17:34;;;;;;;5.95;2.50;;;;;;;21.54;77.85;101187.99;1757636;81;21147;-37
2021/06/19 04:20:00;;;;;;;7.50;2.75;;;;;;;21.48;77.80;101188.33;1757294;81;20948;-35
2021/06/19 04:22:27;;;;;;;7.05;2.25;;;;;;;21.47;77.65;101187.08;1757453;81;20944;-38
2021/06/19 04:24:53;;;;;;;6.65;2.20;;;;;;;21.54;77.91;101184.04;1757268;81;20936;-38
2021/06/19 04:27:21;;;;;;;11.70;2.50;;;;;;;21.71;77.76;101180.14;1757547;81;21530;-37
2021/06/19 04:29:49;;;;;;;9.95;2.60;;;;;;;21.89;76.81;101175.20;1757439;81;21815;-39
2021/06/19 04:32:16;;;;;;;4.55;2.30;;;;;;;21.97;76.30;101172.15;1757370;81;20956;-36
2021/06/19 04:34:43;;;;;;;14.63;2.92;;;;;;;22.11;75.49;101170.06;1757435;81;20979;-37
2021/06/19 04:37:14;;;;;;;3.15;2.35;;;;;;;22.26;75.35;101165.70;1757398;81;20971;-39
2021/06/19 04:39:54;;;;;;;6.47;2.37;;;;;;;22.45;74.38;101168.63;1757471;81;20971;-37
2021/06/19 04:42:19;;;;;;;4.22;2.27;;;;;;;22.61;73.82;101164.20;1754598;81;21159;-37
2021/06/19 04:45:04;;;;;;;10.80;2.83;;;;;;;22.78;73.48;101166.30;1749011;82;21473;-37
2021/06/19 04:47:17;;;;;;;5.87;2.27;;;;;;;22.93;72.19;101165.40;1744654;82;20936;-38
2021/06/19 04:49:44;;;;;;;9.28;2.25;;;;;;;23.08;71.77;101161.45;1749256;82;20967;-38
2021/06/19 04:52:10;;;;;;;4.85;2.33;;;;;;;23.24;70.91;101163.55;1748967;82;20943;-37
2021/06/19 04:54:39;;;;;;;4.22;2.12;;;;;;;23.36;70.32;101168.58;1749106;82;21196;-37
2021/06/19 04:57:06;;;;;;;7.17;2.00;;;;;;;23.51;69.92;101165.95;1749039;82;20936;-36
2021/06/19 04:59:36;;;;;;;8.23;2.25;;;;;;;23.67;68.01;101161.87;1749144;82;20912;-38
2021/06/19 05:02:03;;;;;;;8.33;2.58;;;;;;;23.61;67.49;101160.91;1749115;82;21028;-36
2021/06/19 05:04:29;;;;;;;7.05;2.30;;;;;;;23.51;67.87;101158.02;1749342;81;21414;-37
2021/06/19 05:06:56;;;;;;;8.90;2.30;;;;;;;23.51;68.16;101165.45;1749024;82;21117;-38
2021/06/19 05:09:22;;;;;;;11.55;2.02;;;;;;;23.63;68.38;101161.20;1749060;82;20987;-39
2021/06/19 05:11:49;;;;;;;10.45;2.27;;;;;;;23.78;67.83;101164.67;1749455;81;20928;-37
2021/06/19 05:14:15;;;;;;;10.68;2.98;;;;;;;23.89;66.75;101163.98;1749910;82;20947;-38
2021/06/19 05:16:42;;;;;;;12.23;2.40;;;;;;;23.94;66.37;101153.13;1749974;82;20927;-39
2021/06/19 05:19:08;;;;;;;5.90;2.45;;;;;;;23.92;65.84;101156.34;1749833;82;21122;-36
2021/06/19 05:21:35;;;;;;;8.88;2.95;;;;;;;23.77;65.58;101162.14;1749736;82;20971;-38
2021/06/19 05:24:02;;;;;;;8.68;2.40;;;;;;;23.71;65.99;101164.69;1749261;82;20982;-37
2021/06/19 05:26:29;;;;;;;8.93;2.50;;;;;;;23.74;66.42;101172.42;1749624;82;20968;-42
2021/06/19 05:28:55;;;;;;;9.03;2.30;;;;;;;23.78;65.93;101171.28;1749417;82;20983;-37
2021/06/19 05:31:22;;;;;;;2.60;2.08;;;;;;;23.68;65.89;101168.85;1749172;82;21060;-38
2021/06/19 05:33:48;;;;;;;10.05;2.45;;;;;;;23.56;66.11;101169.60;1749237;82;21012;-38
2021/06/19 05:36:16;;;;;;;7.78;2.50;;;;;;;23.51;66.55;101171.23;1749268;82;20964;-37
2021/06/19 05:38:43;;;;;;;5.67;2.17;;;;;;;23.44;66.55;101176.49;1749323;82;20932;-37
2021/06/19 05:41:10;;;;;;;12.85;2.20;;;;;;;23.22;66.93;101169.39;1749406;82;20995;-38
2021/06/19 05:43:37;;;;;;;13.18;2.27;;;;;;;22.97;67.93;101167.37;1749269;82;21864;-38
2021/06/19 05:46:03;;;;;;;12.80;2.67;;;;;;;22.86;69.06;101168.48;1749225;82;21494;-37
2021/06/19 05:48:32;;;;;;;11.45;2.42;;;;;;;22.78;69.84;101176.40;1749240;82;21277;-38
2021/06/19 05:50:59;;;;;;;8.45;2.83;;;;;;;22.70;70.09;101172.50;1749171;82;20983;-36
2021/06/19 05:53:27;;;;;;;7.85;2.17;;;;;;;22.66;69.79;101177.97;1749539;82;20944;-36
2021/06/19 05:55:54;;;;;;;10.35;2.22;;;;;;;22.62;69.53;101186.14;1749326;82;21834;-37
2021/06/19 05:58:20;;;;;;;10.90;2.00;;;;;;;22.56;68.72;101179.91;1749340;82;20976;-38
2021/06/19 06:00:47;;;;;;;8.18;1.65;;;;;;;22.50;68.37;101187.69;1749307;82;21015;-38
2021/06/19 06:03:13;;;;;;;5.55;1.82;;;;;;;22.49;68.23;101199.18;1721820;82;20952;-37
2021/06/19 06:05:39;;;;;;;8.78;2.00;;;;;;;22.53;68.01;101183.55;1749235;82;20992;-35
2021/06/19 06:08:06;;;;;;;11.57;2.25;;;;;;;22.69;68.41;101195.39;1749625;82;21545;-35
2021/06/19 06:10:32;;;;;;;9.03;1.67;;;;;;;22.93;67.51;101190.48;1749324;80;21513;-38
2021/06/19 06:12:59;;;;;;;8.70;2.00;;;;;;;23.18;67.05;101187.69;1749216;82;20977;-37
2021/06/19 06:15:25;;;;;;;5.30;1.80;;;;;;;23.43;65.98;101194.15;1749199;82;20928;-37
2021/06/19 06:17:52;;;;;;;11.93;1.60;;;;;;;23.67;64.55;101197.54;1749414;82;20908;-37
2021/06/19 06:20:18;;;;;;;10.13;1.70;;;;;;;23.86;62.87;101195.91;1749359;82;21136;-38
2021/06/19 06:22:45;;;;;;;6.20;1.80;;;;;;;23.94;61.78;101192.78;1749270;82;20936;-37
2021/06/19 06:25:12;;;;;;;6.50;1.72;;;;;;;24.10;62.01;101192.67;1749612;82;21012;-39
2021/06/19 06:27:39;;;;;;;11.70;1.60;;;;;;;24.37;61.38;101197.95;1749213;82;20940;-39
2021/06/19 06:30:08;;;;;;;3.58;1.60;;;;;;;24.56;60.08;101202.05;1749267;82;20944;-37
2021/06/19 06:32:34;;;;;;;7.87;1.67;;;;;;;24.58;60.22;101216.52;1749245;82;21112;-37
2021/06/19 06:35:01;;;;;;;16.07;1.90;;;;;;;24.52;60.04;101215.97;1749228;82;20929;-38
2021/06/19 06:37:29;;;;;;;14.30;1.60;;;;;;;24.57;59.35;101209.03;1749263;82;20967;-38
2021/06/19 06:39:55;;;;;;;8.70;1.60;;;;;;;24.58;60.35;101205.92;1749399;82;20936;-38
2021/06/19 06:42:22;;;;;;;5.58;1.50;;;;;;;24.61;58.81;101209.20;1749265;82;20984;-38
2021/06/19 06:44:48;;;;;;;8.45;1.30;;;;;;;24.63;58.89;101201.17;1749331;82;21129;-39
2021/06/19 06:47:14;;;;;;;10.93;1.60;;;;;;;24.76;60.02;101201.23;1749138;82;20936;-38
2021/06/19 06:49:41;;;;;;;11.95;1.70;;;;;;;25.02;60.38;101192.00;1749377;82;20952;-37
2021/06/19 06:52:07;;;;;;;10.95;1.50;;;;;;;25.25;59.43;101186.43;1749167;82;20952;-38
2021/06/19 06:54:39;;;;;;;5.85;1.72;;;;;;;25.31;56.85;101189.14;1749279;82;20984;-38
2021/06/19 06:57:09;;;;;;;5.90;1.60;;;;;;;24.99;57.18;101195.70;1749391;82;21111;-37
2021/06/19 06:59:36;;;;;;;5.80;1.57;;;;;;;24.76;58.06;101196.80;1748541;82;21092;-37
2021/06/19 07:02:06;;;;;;;8.55;1.52;;;;;;;24.59;58.15;101208.94;1749503;82;21026;-36
2021/06/19 07:04:32;;;;;;;5.03;1.12;;;;;;;24.49;58.22;101210.86;1749193;82;21632;-38
2021/06/19 07:06:59;;;;;;;3.22;1.37;;;;;;;24.49;57.80;101192.33;1749293;82;21465;-37
2021/06/19 07:09:25;;;;;;;8.18;1.35;;;;;;;24.49;57.97;101206.88;1749362;82;21850;-37
2021/06/19 07:11:52;;;;;;;9.53;1.57;;;;;;;24.62;58.35;101197.66;1744886;80;20898;-37
2021/06/19 07:14:18;;;;;;;10.93;1.55;;;;;;;24.92;58.21;101195.75;1735213;82;20973;-36
2021/06/19 07:16:46;;;;;;;10.13;1.37;;;;;;;25.25;58.52;101179.34;1735245;82;20984;-37
2021/06/19 07:19:13;;;;;;;8.05;1.80;;;;;;;25.59;55.96;101181.47;1735319;82;21028;-37
2021/06/19 07:21:39;;;;;;;11.65;1.37;;;;;;;25.90;54.93;101174.45;1735362;82;21134;-37
2021/06/19 07:24:07;;;;;;;7.55;1.60;;;;;;;26.13;53.45;101163.48;1735285;82;21250;-39
2021/06/19 07:26:33;;;;;;;12.45;1.50;;;;;;;26.25;53.91;101155.96;1735228;82;20972;-37
2021/06/19 07:29:00;;;;;;;4.45;1.20;;;;;;;26.44;52.91;101156.42;1735147;82;20936;-37
2021/06/19 07:31:26;;;;;;;5.22;1.30;;;;;;;26.53;52.54;101143.30;1735185;81;20937;-37
2021/06/19 07:33:53;;;;;;;2.25;1.25;;;;;;;26.59;51.61;101140.64;1735461;82;21098;-36
2021/06/19 07:36:19;;;;;;;8.40;1.50;;;;;;;26.51;51.96;101139.06;1735177;82;20917;-38
2021/06/19 07:38:46;;;;;;;7.55;1.55;;;;;;;26.43;51.50;101158.71;1735174;82;20976;-38
2021/06/19 07:41:12;;;;;;;3.92;1.80;;;;;;;26.25;52.77;101171.88;1735230;82;21035;-38
2021/06/19 07:43:40;;;;;;;10.78;1.55;;;;;;;26.11;53.64;101165.41;1735221;82;20984;-38
2021/06/19 07:46:07;;;;;;;10.13;1.40;;;;;;;25.85;53.97;101166.83;1735343;82;21787;-37
2021/06/19 07:48:34;;;;;;;6.00;1.40;;;;;;;25.63;53.96;101164.85;1735264;82;21472;-40
2021/06/19 07:51:00;;;;;;;5.47;1.10;;;;;;;25.34;55.77;101162.43;1735177;82;21517;-38
2021/06/19 07:53:26;;;;;;;10.10;2.08;;;;;;;25.15;55.51;101158.44;1735145;82;21494;-38
2021/06/19 07:55:53;;;;;;;6.08;1.62;;;;;;;24.85;55.30;101158.73;1735288;82;20937;-37
2021/06/19 07:58:19;;;;;;;4.12;1.22;;;;;;;24.55;56.13;101158.02;1735230;82;21138;-39
2021/06/19 08:00:46;;;;;;;14.40;2.05;;;;;;;24.30;57.03;101155.67;1735406;82;20980;-37
2021/06/19 08:03:12;;;;;;;7.17;1.55;;;;;;;24.06;57.78;101151.03;1735192;82;21016;-38
2021/06/19 08:05:39;;;;;;;14.83;4.15;;;;;;;23.76;60.12;101134.85;1735489;82;20976;-39
2021/06/19 08:08:06;;;;;;;6.60;2.47;;;;;;;23.27;64.47;101120.76;1735232;82;20968;-38
2021/06/19 08:10:33;;;;;;;11.85;2.17;;;;;;;22.55;66.67;101131.56;1735295;82;21215;-38
2021/06/19 08:12:59;;;;;;;15.25;2.40;;;;;;;22.07;69.75;101137.73;1735057;81;21545;-40
2021/06/19 08:15:26;;;;;;;11.60;3.40;;;;;;;22.04;73.93;101138.40;1735295;82;21459;-38
2021/06/19 08:17:53;;;;;;;6.70;2.42;;;;;;;22.19;76.04;101126.14;1735211;82;21036;-42
2021/06/19 08:20:19;;;;;;;13.65;2.25;;;;;;;22.45;75.83;101128.58;1735373;82;20945;-38
2021/06/19 08:22:47;;;;;;;9.00;1.80;;;;;;;22.57;75.41;101132.31;1735225;82;21130;-37
2021/06/19 08:25:13;;;;;;;20.45;2.80;;;;;;;22.65;73.38;101134.05;1735076;82;21004;-39
2021/06/19 08:27:40;;;;;;;15.10;2.30;;;;;;;22.61;70.27;101136.50;1735245;82;21013;-38
2021/06/19 08:30:09;;;;;;;5.10;1.50;;;;;;;22.66;70.31;101138.84;1735237;82;20989;-40
2021/06/19 08:32:36;;;;;;;5.12;1.40;;;;;;;22.87;71.01;101139.84;1735490;82;20894;-37
2021/06/19 08:35:05;;;;;;;3.60;1.10;;;;;;;23.20;68.50;101141.38;1735221;82;21946;-38
2021/06/19 08:37:33;;;;;;;3.92;1.20;;;;;;;23.50;64.89;101137.84;1735328;82;22287;-38
2021/06/19 08:39:59;;;;;;;5.55;1.60;;;;;;;23.62;61.78;101136.19;1735268;82;21534;-37
2021/06/19 08:42:26;;;;;;;14.75;1.50;;;;;;;23.64;60.45;101133.00;1735139;82;20941;-36
2021/06/19 08:44:54;;;;;;;6.58;1.45;;;;;;;23.55;59.92;101134.42;1735214;82;20996;-38
2021/06/19 08:47:23;;;;;;;5.95;2.25;;;;;;;23.53;60.05;101133.67;1677391;82;21141;-36
2021/06/19 08:49:51;;;;;;;8.98;1.98;;;;;;;23.75;59.95;101129.68;1735088;82;20984;-37
2021/06/19 08:52:18;;;;;;;10.63;2.00;;;;;;;24.14;59.28;101128.56;1735050;82;20893;-37
2021/06/19 08:54:44;;;;;;;4.25;1.82;;;;;;;24.57;58.01;101111.13;1735107;82;20932;-37
2021/06/19 08:57:17;;;;;;;3.92;1.57;;;;;;;24.88;56.50;101112.20;1735230;82;21039;-37
2021/06/19 08:59:48;;;;;;;10.13;2.95;;;;;;;25.16;56.84;101108.49;1734383;82;21152;-37
2021/06/19 09:02:16;;;;;;;5.33;3.12;;;;;;;25.45;53.37;101105.58;1735475;82;20925;-38
2021/06/19 09:05:07;;;;;;;18.42;2.75;;;;;;;25.62;55.24;101108.83;1735248;82;21529;-38
2021/06/19 09:07:39;;;;;;;8.38;1.57;;;;;;;25.76;53.87;101111.34;1735216;82;20996;-38
2021/06/19 09:10:32;;;;;;;6.58;1.35;;;;;;;26.02;54.55;101105.06;1735259;82;20977;-38
2021/06/19 09:13:09;;;;;;;10.28;1.47;;;;;;;26.28;54.30;101088.58;1735607;82;21165;-38
2021/06/19 09:15:47;;;;;;;7.20;1.82;;;;;;;26.62;52.83;101083.84;1743110;81;20992;-37
2021/06/19 09:18:25;;;;;;;6.10;2.25;;;;;;;26.71;51.38;101083.12;1743393;82;20991;-38
2021/06/19 09:21:00;;;;;;;14.83;4.20;;;;;;;26.61;52.38;101072.36;1743472;82;20980;-37
2021/06/19 09:23:36;;;;;;;27.27;12.55;;;;;;;26.60;52.54;101077.30;1743629;82;21482;-38
2021/06/19 09:26:18;;;;;;;16.80;7.17;;;;;;;26.58;53.12;101073.93;1743361;82;21133;-38
2021/06/19 09:29:09;;;;;;;7.83;3.70;;;;;;;26.58;53.75;101073.10;1742843;82;21016;-38
2021/06/19 09:31:46;;;;;;;3.00;2.62;;;;;;;26.61;53.61;101075.02;1743399;82;20937;-38
2021/06/19 09:34:25;;;;;;;5.33;2.00;;;;;;;26.52;53.46;101068.63;1743448;82;20940;-38
2021/06/19 09:37:04;;;;;;;12.00;2.37;;;;;;;26.47;53.36;101068.11;1743527;81;20980;-39
2021/06/19 09:39:31;;;;;;;9.38;2.52;;;;;;;26.53;53.73;101059.70;1743323;82;21044;-38
2021/06/19 09:42:00;;;;;;;16.48;2.33;;;;;;;26.60;53.63;101056.08;1743603;82;21102;-37
2021/06/19 09:44:47;;;;;;;10.35;2.10;;;;;;;26.59;53.62;101063.67;1743389;82;21595;-38
2021/06/19 09:47:19;;;;;;;9.20;2.10;;;;;;;26.63;53.93;101061.64;1743274;82;20975;-38
2021/06/19 09:49:48;;;;;;;11.90;1.95;;;;;;;26.72;53.01;101056.93;1743510;82;20904;-37
2021/06/19 09:52:15;;;;;;;14.23;2.05;;;;;;;26.99;52.97;101046.47;1743184;82;21211;-37
2021/06/19 09:54:47;;;;;;;9.70;1.40;;;;;;;27.46;52.06;101042.31;1743379;82;21003;-37
2021/06/19 09:57:18;;;;;;;8.35;2.37;;;;;;;27.84;51.65;101041.50;1713819;82;21489;-37
2021/06/19 09:59:44;;;;;;;13.38;1.85;;;;;;;28.11;50.49;101034.84;1743801;82;22022;-36
2021/06/19 10:02:29;;;;;;;10.05;2.05;;;;;;;28.23;50.00;101030.33;1743541;82;21203;-37
2021/06/19 10:04:57;;;;;;;8.75;1.65;;;;;;;28.34;49.96;101022.77;1743700;82;21103;-38
2021/06/19 10:07:25;;;;;;;5.33;1.20;;;;;;;28.41;46.70;101030.57;1743402;82;21060;-36
2021/06/19 10:09:56;;;;;;;9.88;2.10;;;;;;;28.25;45.74;101027.05;1743441;82;20973;-37
2021/06/19 10:12:27;;;;;;;13.20;2.10;;;;;;;28.20;46.70;101023.94;1743418;81;20904;-37
2021/06/19 10:15:08;;;;;;;7.53;2.20;;;;;;;28.21;47.19;101030.45;1746540;82;21011;-38
2021/06/19 10:17:45;;;;;;;8.08;1.77;;;;;;;28.22;47.89;101028.64;1745970;82;21142;-37
2021/06/19 10:20:16;;;;;;;8.25;1.50;;;;;;;28.24;47.16;101024.03;1749039;82;20924;-37
2021/06/19 10:22:43;;;;;;;5.55;1.47;;;;;;;28.22;47.07;101025.98;1749240;81;20987;-37
2021/06/19 10:25:14;;;;;;;4.15;1.15;;;;;;;28.51;46.76;101013.32;1749139;82;21023;-37
2021/06/19 10:27:45;;;;;;;10.63;1.47;;;;;;;28.85;47.01;101014.91;1749365;82;20924;-38
2021/06/19 10:30:14;;;;;;;11.05;1.55;;;;;;;29.11;45.68;101010.77;1749258;82;21470;-37
2021/06/19 10:32:51;;;;;;;7.90;1.35;;;;;;;29.43;44.52;101014.71;1749283;82;21497;-38
2021/06/19 10:35:21;;;;;;;15.50;1.50;;;;;;;29.63;43.78;101003.56;1749235;82;20980;-38
2021/06/19 10:37:49;;;;;;;11.53;1.27;;;;;;;29.76;43.19;100998.80;1749536;82;21031;-37
2021/06/19 10:40:24;;;;;;;7.67;1.35;;;;;;;29.92;43.12;100996.88;1749219;82;21023;-37
2021/06/19 10:42:54;;;;;;;8.68;0.95;;;;;;;30.13;42.64;100990.56;1749346;82;21102;-36
2021/06/19 10:45:23;;;;;;;6.40;1.05;;;;;;;30.33;40.10;100989.19;1748782;82;20968;-38
2021/06/19 10:48:10;;;;;;;6.15;1.27;;;;;;;30.50;40.71;100989.73;1749120;82;21541;-37
2021/06/19 10:50:39;;;;;;;13.00;1.45;;;;;;;30.62;40.21;100986.41;1748531;82;20889;-38
2021/06/19 10:53:16;;;;;;;6.47;1.40;;;;;;;30.72;41.80;100988.22;1748350;82;20960;-38
2021/06/19 10:55:52;;;;;;;12.03;1.45;;;;;;;30.91;41.03;100980.08;1748741;82;21154;-38
2021/06/19 10:58:35;;;;;;;12.03;1.62;;;;;;;31.15;37.57;100985.34;1749184;82;20964;-38
2021/06/19 11:01:04;;;;;;;8.08;1.50;;;;;;;31.04;38.82;100972.21;1749312;82;21624;-38
2021/06/19 11:03:48;;;;;;;10.85;2.40;;;;;;;31.08;37.96;100969.58;1749125;82;20974;-38
2021/06/19 11:06:29;;;;;;;8.78;1.75;;;;;;;31.01;38.53;100964.50;1749217;82;20979;-39
2021/06/19 11:09:15;;;;;;;14.38;2.58;;;;;;;31.03;37.83;100962.52;1748992;82;21140;-38
2021/06/19 11:12:02;;;;;;;4.87;1.90;;;;;;;31.11;38.39;100962.11;1747539;82;20944;-38
2021/06/19 11:14:47;;;;;;;14.68;3.40;;;;;;;31.14;39.02;100962.28;1749199;82;20909;-37
2021/06/19 11:17:25;;;;;;;18.62;3.87;;;;;;;31.43;39.04;100969.27;1749318;82;20869;-38
2021/06/19 11:20:02;;;;;;;37.63;18.32;;;;;;;31.67;38.65;100958.44;1747082;80;20952;-39
2021/06/19 11:22:42;;;;;;;18.30;7.30;;;;;;;31.69;35.52;100952.43;1738948;82;21150;-39
2021/06/19 11:25:28;;;;;;;12.75;5.00;;;;;;;31.19;37.17;100962.70;1749681;82;21468;-40
2021/06/19 11:28:02;;;;;;;17.32;4.22;;;;;;;30.95;38.25;100964.12;1749841;82;21525;-37
2021/06/19 11:30:37;;;;;;;6.37;3.30;;;;;;;30.88;38.32;100966.20;1749778;82;21471;-38
2021/06/19 11:33:25;;;;;;;15.93;3.65;;;;;;;30.74;39.27;100959.52;1749892;81;20928;-39